Time;durP1;ratioP1;P1;durP2;ratioP2;P2;SDS_P1;SDS_P2;PMS_P1;PMS_P2;Temp;Humidity;BMP_temperature;BMP_pressure;BME280_temperature;BME280_humidity;BME280_pressure;Samples;Min_cycle;Max_cycle;Signal;HPM_P1;HPM_P2
2023/09/04 00:00:27;;;;;;;3.83;3.22;;;13.40;99.90;;;;;;5073632;28;20044;-81
2023/09/04 00:02:52;;;;;;;3.28;3.08;;;13.30;99.90;;;;;;5070227;28;20106;-80
2023/09/04 00:05:18;;;;;;;3.92;3.53;;;13.30;99.90;;;;;;5071036;28;20046;-80
2023/09/04 00:07:45;;;;;;;4.18;3.72;;;13.20;99.90;;;;;;5069037;28;20095;-81
2023/09/04 00:10:10;;;;;;;4.22;3.83;;;13.20;99.90;;;;;;5081613;28;20520;-80
2023/09/04 00:12:36;;;;;;;3.78;3.47;;;13.20;99.90;;;;;;5066934;28;20040;-80
2023/09/04 00:15:03;;;;;;;4.22;3.83;;;13.20;99.90;;;;;;5075107;28;20826;-80
2023/09/04 00:17:30;;;;;;;4.13;3.72;;;13.10;99.90;;;;;;5069327;28;20538;-80
2023/09/04 00:19:55;;;;;;;4.85;4.22;;;13.00;99.90;;;;;;5066245;28;20040;-80
2023/09/04 00:22:21;;;;;;;4.18;3.78;;;13.00;99.90;;;;;;5069239;28;20468;-80
2023/09/04 00:24:47;;;;;;;4.30;3.90;;;13.10;99.90;;;;;;5068733;28;20357;-80
2023/09/04 00:27:12;;;;;;;4.20;3.80;;;13.00;99.90;;;;;;5069517;28;20126;-80
2023/09/04 00:29:38;;;;;;;5.22;3.83;;;13.00;99.90;;;;;;5081937;28;20120;-80
2023/09/04 00:32:05;;;;;;;4.82;3.65;;;13.00;99.90;;;;;;5077967;28;20052;-80
2023/09/04 00:34:31;;;;;;;3.97;3.67;;;13.00;99.90;;;;;;5072540;28;20052;-80
2023/09/04 00:36:57;;;;;;;3.17;2.97;;;13.00;99.90;;;;;;5086759;28;20048;-80
2023/09/04 00:39:23;;;;;;;3.72;3.08;;;13.00;99.90;;;;;;5064703;28;20086;-80
2023/09/04 00:41:49;;;;;;;2.75;2.55;;;12.90;99.90;;;;;;5072887;28;20041;-80
2023/09/04 00:44:14;;;;;;;3.13;2.90;;;12.90;99.90;;;;;;5075202;28;20044;-81
2023/09/04 00:46:41;;;;;;;3.28;2.92;;;12.90;99.90;;;;;;5075366;28;20131;-81
2023/09/04 00:49:08;;;;;;;3.13;2.83;;;12.90;99.90;;;;;;5072384;28;20142;-80
2023/09/04 00:51:34;;;;;;;3.60;3.30;;;12.90;99.90;;;;;;5085431;28;20048;-80
2023/09/04 00:54:00;;;;;;;3.58;3.22;;;12.80;99.90;;;;;;5074644;28;20119;-80
2023/09/04 00:56:26;;;;;;;4.85;3.13;;;12.80;99.90;;;;;;5067884;28;20072;-80
2023/09/04 00:58:52;;;;;;;3.67;3.03;;;12.80;99.90;;;;;;5069561;28;20048;-80
2023/09/04 01:01:18;;;;;;;3.88;2.95;;;12.80;99.90;;;;;;5084557;28;20048;-80
2023/09/04 01:03:44;;;;;;;2.95;2.75;;;12.80;99.90;;;;;;5074762;28;20115;-80
2023/09/04 01:06:09;;;;;;;3.20;2.80;;;12.80;99.90;;;;;;5075362;28;20058;-81
2023/09/04 01:08:36;;;;;;;2.80;2.60;;;12.80;99.90;;;;;;5068238;28;20150;-80
2023/09/04 01:11:11;;;;;;;4.30;2.55;;;12.70;99.90;;;;;;5068097;28;20052;-80
2023/09/04 01:13:50;;;;;;;3.03;2.72;;;12.70;99.90;;;;;;5081243;28;20056;-80
2023/09/04 01:16:17;;;;;;;2.70;2.30;;;12.70;99.90;;;;;;5065675;28;20044;-80
2023/09/04 01:18:43;;;;;;;2.78;2.58;;;12.70;99.90;;;;;;5056935;28;20048;-80
2023/09/04 01:21:09;;;;;;;2.70;2.50;;;12.60;99.90;;;;;;5066330;28;20068;-80
2023/09/04 01:23:35;;;;;;;2.92;2.72;;;12.60;99.90;;;;;;5070171;28;20087;-80
2023/09/04 01:26:24;;;;;;;2.33;2.10;;;12.60;99.90;;;;;;5079981;28;20047;-81
2023/09/04 01:29:00;;;;;;;3.25;2.38;;;12.50;99.90;;;;;;5072340;28;20040;-81
2023/09/04 01:31:33;;;;;;;3.05;2.72;;;12.50;99.90;;;;;;5067834;28;20040;-80
2023/09/04 01:34:17;;;;;;;2.80;2.60;;;12.50;99.90;;;;;;5074132;28;20087;-80
2023/09/04 01:36:44;;;;;;;3.13;2.83;;;12.50;99.90;;;;;;5082726;28;20047;-80
2023/09/04 01:39:10;;;;;;;4.60;3.33;;;12.40;99.90;;;;;;5077166;28;20568;-81
2023/09/04 01:41:39;;;;;;;2.78;2.58;;;12.40;99.90;;;;;;5080961;28;20717;-80
2023/09/04 01:44:06;;;;;;;2.75;2.55;;;12.40;99.90;;;;;;5077213;28;20071;-80
2023/09/04 01:46:32;;;;;;;4.25;3.22;;;12.40;99.90;;;;;;5069748;28;20060;-80
2023/09/04 01:48:58;;;;;;;3.30;3.00;;;12.30;99.90;;;;;;5079024;28;20105;-81
2023/09/04 01:51:24;;;;;;;3.40;2.78;;;12.30;99.90;;;;;;5066054;28;20049;-80
2023/09/04 01:53:49;;;;;;;3.15;2.85;;;12.30;99.90;;;;;;5072661;28;20040;-80
2023/09/04 01:56:15;;;;;;;4.05;3.20;;;12.30;99.90;;;;;;5088083;28;20044;-80
2023/09/04 01:58:40;;;;;;;3.20;3.00;;;12.30;99.90;;;;;;5085127;28;20047;-80
2023/09/04 02:01:06;;;;;;;3.33;3.13;;;12.30;99.90;;;;;;5080686;28;20040;-80
2023/09/04 02:03:32;;;;;;;3.45;3.13;;;12.30;99.90;;;;;;5084269;28;20047;-80
2023/09/04 02:05:57;;;;;;;3.50;3.20;;;12.30;99.90;;;;;;5076083;28;20047;-80
2023/09/04 02:08:23;;;;;;;4.43;3.67;;;12.30;99.90;;;;;;5076459;28;20049;-80
2023/09/04 02:10:49;;;;;;;4.13;3.63;;;12.30;99.90;;;;;;5070462;28;20067;-80
2023/09/04 02:13:15;;;;;;;3.97;3.35;;;12.20;99.90;;;;;;5085366;28;20177;-81
2023/09/04 02:15:40;;;;;;;3.30;3.00;;;12.20;99.90;;;;;;5082629;28;20473;-81
2023/09/04 02:18:06;;;;;;;3.90;3.60;;;12.20;99.90;;;;;;5072594;28;20075;-80
2023/09/04 02:20:32;;;;;;;4.13;3.65;;;12.10;99.90;;;;;;5084448;28;20036;-80
2023/09/04 02:22:58;;;;;;;4.03;3.65;;;12.10;99.90;;;;;;5083750;28;20055;-81
2023/09/04 02:25:24;;;;;;;4.03;3.63;;;12.10;99.90;;;;;;5078955;28;20555;-80
2023/09/04 02:27:51;;;;;;;3.72;3.42;;;12.10;99.90;;;;;;5067731;28;20056;-80
2023/09/04 02:30:18;;;;;;;3.88;3.58;;;12.00;99.90;;;;;;5072948;28;20044;-80
2023/09/04 02:32:44;;;;;;;3.28;3.08;;;12.10;99.90;;;;;;5076137;28;20823;-80
2023/09/04 02:35:09;;;;;;;4.53;3.42;;;12.00;99.90;;;;;;5074272;28;20045;-81
2023/09/04 02:37:35;;;;;;;4.05;3.38;;;12.10;99.90;;;;;;5050221;28;20039;-80
2023/09/04 02:40:01;;;;;;;4.97;3.30;;;12.00;99.90;;;;;;5066124;28;20044;-81
2023/09/04 02:42:29;;;;;;;3.92;3.53;;;12.00;99.90;;;;;;5082008;28;20052;-80
2023/09/04 02:44:55;;;;;;;3.90;3.60;;;11.90;99.90;;;;;;5078634;28;20052;-80
2023/09/04 02:47:20;;;;;;;4.30;3.60;;;12.00;99.90;;;;;;5067498;28;20049;-81
2023/09/04 02:49:46;;;;;;;3.70;3.40;;;11.90;99.90;;;;;;5080429;28;20056;-80
2023/09/04 02:52:12;;;;;;;3.58;3.33;;;12.00;99.90;;;;;;5077673;28;20036;-81
2023/09/04 02:54:37;;;;;;;4.55;3.58;;;11.90;99.90;;;;;;5067007;28;20064;-81
2023/09/04 02:57:03;;;;;;;3.95;3.65;;;12.00;99.90;;;;;;5067369;28;20078;-80
2023/09/04 02:59:29;;;;;;;4.30;3.90;;;11.90;99.90;;;;;;5070827;28;20051;-80
2023/09/04 03:01:55;;;;;;;4.63;4.22;;;11.90;99.90;;;;;;5070371;28;20048;-80
2023/09/04 03:04:20;;;;;;;5.82;4.20;;;11.90;99.90;;;;;;5085555;28;20039;-80
2023/09/04 03:06:46;;;;;;;5.07;4.30;;;11.90;99.90;;;;;;5084889;28;20052;-81
2023/09/04 03:09:15;;;;;;;4.80;3.92;;;11.80;99.90;;;;;;5077492;28;20492;-80
2023/09/04 03:11:41;;;;;;;4.40;4.00;;;11.80;99.90;;;;;;5082744;28;20040;-80
2023/09/04 03:14:06;;;;;;;4.60;4.20;;;11.80;99.90;;;;;;5071045;28;20040;-80
2023/09/04 03:16:32;;;;;;;5.65;4.93;;;11.70;99.90;;;;;;5084479;28;20109;-81
2023/09/04 03:18:57;;;;;;;5.07;4.57;;;11.70;99.90;;;;;;5080095;28;20123;-81
2023/09/04 03:21:23;;;;;;;4.75;4.28;;;11.70;99.90;;;;;;5080098;28;20068;-80
2023/09/04 03:23:51;;;;;;;5.05;4.65;;;11.70;99.90;;;;;;5070643;28;20041;-80
2023/09/04 03:26:17;;;;;;;5.88;4.47;;;11.70;99.90;;;;;;5080079;28;20052;-81
2023/09/04 03:28:42;;;;;;;4.75;4.30;;;11.70;99.90;;;;;;5075533;28;20459;-81
2023/09/04 03:31:14;;;;;;;5.72;4.22;;;11.70;99.90;;;;;;5076509;28;20048;-80
2023/09/04 03:33:40;;;;;;;5.10;4.60;;;11.70;99.90;;;;;;5075776;28;20375;-80
2023/09/04 03:36:06;;;;;;;7.25;4.95;;;11.60;99.90;;;;;;5077024;28;20060;-81
2023/09/04 03:38:32;;;;;;;5.38;4.88;;;11.60;99.90;;;;;;5071330;28;20036;-81
2023/09/04 03:40:57;;;;;;;5.50;5.00;;;11.60;99.90;;;;;;5083696;28;20044;-80
2023/09/04 03:43:23;;;;;;;8.32;5.22;;;11.60;99.90;;;;;;5081783;28;20055;-80
2023/09/04 03:45:48;;;;;;;7.88;5.40;;;11.60;99.90;;;;;;5081080;28;20062;-80
2023/09/04 03:48:14;;;;;;;5.57;4.95;;;11.50;99.90;;;;;;5084731;28;20206;-80
2023/09/04 03:50:40;;;;;;;7.07;5.15;;;11.60;99.90;;;;;;5081512;28;20491;-81
2023/09/04 03:53:05;;;;;;;5.43;4.93;;;11.50;99.90;;;;;;5085774;28;20040;-81
2023/09/04 03:55:31;;;;;;;5.95;5.03;;;11.50;99.90;;;;;;5080399;28;20040;-80
2023/09/04 03:57:58;;;;;;;5.95;5.20;;;11.50;99.90;;;;;;5068882;28;20060;-80
2023/09/04 04:00:24;;;;;;;5.50;5.00;;;11.50;99.90;;;;;;5074014;28;20455;-81
2023/09/04 04:02:51;;;;;;;5.45;4.90;;;11.50;99.90;;;;;;5070704;28;20048;-81
2023/09/04 04:05:18;;;;;;;6.07;5.43;;;11.50;99.90;;;;;;5082266;28;20159;-80
2023/09/04 04:07:44;;;;;;;6.07;5.47;;;11.50;99.90;;;;;;5081025;28;20055;-82
2023/09/04 04:10:11;;;;;;;5.63;4.60;;;11.50;99.90;;;;;;5084489;28;20036;-80
2023/09/04 04:12:37;;;;;;;5.93;5.32;;;11.40;99.90;;;;;;5090135;28;20040;-80
2023/09/04 04:15:06;;;;;;;6.40;5.63;;;11.40;99.90;;;;;;5085089;28;20834;-80
2023/09/04 04:17:32;;;;;;;5.78;5.05;;;11.40;99.90;;;;;;5090219;28;20168;-80
2023/09/04 04:19:58;;;;;;;6.60;4.40;;;11.40;99.90;;;;;;5085798;28;20032;-80
2023/09/04 04:22:24;;;;;;;5.55;4.10;;;11.30;99.90;;;;;;5079832;28;20043;-81
2023/09/04 04:24:50;;;;;;;5.03;4.18;;;11.30;99.90;;;;;;5074913;28;20044;-81
2023/09/04 04:27:17;;;;;;;4.97;4.07;;;11.40;99.90;;;;;;5075216;28;20071;-80
2023/09/04 04:29:48;;;;;;;3.83;3.45;;;11.30;99.90;;;;;;5087124;28;20931;-80
2023/09/04 04:32:14;;;;;;;5.13;3.55;;;11.20;99.90;;;;;;5089418;28;20170;-81
2023/09/04 04:34:42;;;;;;;3.80;3.47;;;11.20;99.90;;;;;;5068114;28;20768;-80
2023/09/04 04:37:08;;;;;;;4.47;4.07;;;11.20;99.90;;;;;;5074660;28;20051;-80
2023/09/04 04:39:33;;;;;;;4.75;3.45;;;11.20;99.90;;;;;;5084426;28;20044;-81
2023/09/04 04:41:59;;;;;;;4.10;3.60;;;11.10;99.90;;;;;;5082359;28;20142;-81
2023/09/04 04:44:25;;;;;;;3.67;3.33;;;11.10;99.90;;;;;;5069036;28;20636;-80
2023/09/04 04:46:51;;;;;;;3.80;3.47;;;11.10;99.90;;;;;;5067902;28;20041;-81
2023/09/04 04:49:21;;;;;;;3.85;3.45;;;11.10;99.90;;;;;;5067736;28;20048;-81
2023/09/04 04:51:47;;;;;;;4.00;3.28;;;11.10;99.90;;;;;;5068268;28;21179;-81
2023/09/04 04:54:13;;;;;;;4.25;3.85;;;11.10;99.90;;;;;;5077015;28;20120;-81
2023/09/04 04:56:41;;;;;;;4.15;3.75;;;11.00;99.90;;;;;;5078303;28;20519;-82
2023/09/04 04:59:08;;;;;;;5.18;3.97;;;11.10;99.90;;;;;;5082313;28;20792;-81
2023/09/04 05:01:34;;;;;;;5.97;3.90;;;11.00;99.90;;;;;;5079659;28;20044;-82
2023/09/04 05:03:59;;;;;;;4.20;3.80;;;11.10;99.90;;;;;;5080324;28;20447;-82
2023/09/04 05:06:25;;;;;;;6.22;3.53;;;11.10;99.90;;;;;;5079360;28;20044;-81
2023/09/04 05:08:51;;;;;;;15.75;4.78;;;11.10;99.90;;;;;;5085676;28;20036;-82
2023/09/04 05:11:17;;;;;;;4.35;3.95;;;11.10;99.90;;;;;;5070222;28;20120;-82
2023/09/04 05:13:43;;;;;;;4.45;4.05;;;11.20;99.90;;;;;;5070608;28;20159;-82
2023/09/04 05:16:08;;;;;;;4.72;3.88;;;11.10;99.90;;;;;;5084298;28;20040;-81
2023/09/04 05:18:34;;;;;;;4.88;4.10;;;11.10;99.90;;;;;;5077179;28;20562;-82
2023/09/04 05:21:03;;;;;;;5.38;3.60;;;11.10;99.90;;;;;;5068585;28;20055;-83
2023/09/04 05:23:28;;;;;;;5.72;3.88;;;11.30;99.90;;;;;;5076413;28;20048;-82
2023/09/04 05:25:54;;;;;;;3.92;3.63;;;11.20;99.90;;;;;;5076810;28;20054;-82
2023/09/04 05:28:20;;;;;;;5.07;4.55;;;11.20;99.90;;;;;;5075869;28;20447;-82
2023/09/04 05:30:46;;;;;;;7.68;4.20;;;11.20;99.90;;;;;;5075643;28;20508;-82
2023/09/04 05:33:12;;;;;;;4.80;4.32;;;11.30;99.90;;;;;;5076739;28;20041;-82
2023/09/04 05:35:37;;;;;;;5.57;4.95;;;11.30;99.90;;;;;;5078201;28;20517;-82
2023/09/04 05:38:03;;;;;;;4.85;4.43;;;11.40;99.90;;;;;;5072551;28;20415;-83
2023/09/04 05:40:28;;;;;;;5.25;4.75;;;11.40;99.90;;;;;;5050710;28;20047;-82
2023/09/04 05:42:54;;;;;;;5.15;4.65;;;11.50;99.90;;;;;;5066974;28;20238;-82
2023/09/04 05:45:21;;;;;;;5.28;4.78;;;11.50;99.90;;;;;;5067853;28;20144;-82
2023/09/04 05:47:46;;;;;;;6.07;5.13;;;11.60;99.90;;;;;;5063191;28;20143;-82
2023/09/04 05:50:12;;;;;;;7.00;4.35;;;11.60;99.90;;;;;;5066553;28;20193;-82
2023/09/04 05:52:38;;;;;;;5.30;4.50;;;11.70;99.90;;;;;;5066742;28;20482;-83
2023/09/04 05:55:04;;;;;;;5.60;5.07;;;11.70;99.90;;;;;;5049613;28;20494;-82
2023/09/04 05:57:30;;;;;;;5.60;5.00;;;11.80;99.90;;;;;;5050381;28;20044;-83
2023/09/04 05:59:55;;;;;;;7.97;6.07;;;11.90;99.90;;;;;;5066701;28;20041;-83
2023/09/04 06:02:21;;;;;;;6.25;5.65;;;12.00;99.90;;;;;;5068126;28;20483;-82
2023/09/04 06:04:46;;;;;;;6.30;5.72;;;12.10;99.90;;;;;;5073931;28;20050;-83
2023/09/04 06:07:14;;;;;;;11.13;7.55;;;12.10;99.90;;;;;;5076962;28;20044;-83
2023/09/04 06:09:40;;;;;;;10.30;7.72;;;12.30;99.90;;;;;;5070718;28;20051;-82
2023/09/04 06:12:08;;;;;;;8.77;7.90;;;12.40;99.90;;;;;;5067276;28;20045;-81
2023/09/04 06:14:34;;;;;;;9.43;8.27;;;12.60;99.90;;;;;;5055989;28;20050;-81
2023/09/04 06:17:00;;;;;;;9.18;7.80;;;12.70;99.90;;;;;;5080097;28;20461;-81
2023/09/04 06:19:26;;;;;;;8.60;7.68;;;12.90;99.90;;;;;;5082408;28;20040;-81
2023/09/04 06:21:51;;;;;;;8.80;8.00;;;13.10;99.90;;;;;;5067789;28;20048;-81
2023/09/04 06:24:17;;;;;;;11.15;8.73;;;13.20;99.90;;;;;;5083117;28;20041;-81
2023/09/04 06:26:42;;;;;;;10.35;8.75;;;13.30;99.90;;;;;;5066318;28;20045;-81
2023/09/04 06:29:08;;;;;;;8.95;7.88;;;13.40;99.90;;;;;;5067121;28;20070;-81
2023/09/04 06:31:33;;;;;;;10.90;8.00;;;13.50;99.90;;;;;;5067397;28;20033;-81
2023/09/04 06:33:59;;;;;;;14.32;8.30;;;13.60;99.90;;;;;;5071743;28;20050;-81
2023/09/04 06:36:25;;;;;;;9.60;7.95;;;13.70;99.90;;;;;;5091891;28;20044;-81
2023/09/04 06:38:50;;;;;;;10.20;8.07;;;13.70;99.90;;;;;;5091276;28;20043;-81
2023/09/04 06:41:16;;;;;;;9.40;8.27;;;13.90;99.90;;;;;;5091966;28;20051;-81
2023/09/04 06:43:41;;;;;;;10.48;8.00;;;13.90;99.90;;;;;;5086677;28;20035;-80
2023/09/04 06:46:07;;;;;;;9.30;8.13;;;14.00;99.90;;;;;;5087604;28;20058;-80
2023/09/04 06:48:33;;;;;;;10.05;7.72;;;14.20;99.90;;;;;;5070333;28;20067;-81
2023/09/04 06:51:00;;;;;;;9.30;7.72;;;14.20;99.90;;;;;;5071088;28;20055;-81
2023/09/04 06:53:26;;;;;;;8.52;7.72;;;14.30;99.90;;;;;;5086348;28;20154;-81
2023/09/04 06:55:52;;;;;;;8.52;7.70;;;14.40;99.90;;;;;;5074921;28;20147;-81
2023/09/04 06:58:17;;;;;;;8.50;7.60;;;14.50;99.90;;;;;;5071417;28;20135;-81
2023/09/04 07:00:43;;;;;;;9.88;7.90;;;14.60;99.90;;;;;;5080498;28;20043;-80
2023/09/04 07:03:09;;;;;;;8.23;7.43;;;14.80;99.90;;;;;;5089400;28;20066;-80
2023/09/04 07:05:34;;;;;;;8.73;7.78;;;14.90;99.90;;;;;;5091723;28;20032;-80
2023/09/04 07:08:00;;;;;;;7.93;7.22;;;15.00;99.90;;;;;;5091419;28;20047;-80
2023/09/04 07:10:26;;;;;;;8.00;7.20;;;15.10;99.90;;;;;;5075869;28;20660;-81
2023/09/04 07:12:51;;;;;;;8.02;7.22;;;15.30;99.90;;;;;;5079171;28;20032;-81
2023/09/04 07:15:17;;;;;;;8.98;8.05;;;15.40;99.90;;;;;;5070220;28;20082;-80
2023/09/04 07:17:43;;;;;;;8.73;7.35;;;15.60;99.90;;;;;;5070469;28;20062;-81
2023/09/04 07:20:10;;;;;;;7.65;6.93;;;15.60;99.90;;;;;;5052505;28;20052;-79
2023/09/04 07:22:36;;;;;;;7.80;7.05;;;15.80;99.90;;;;;;5070415;28;20048;-77
2023/09/04 07:25:03;;;;;;;6.82;6.15;;;16.00;99.90;;;;;;5069316;28;20063;-77
2023/09/04 07:27:30;;;;;;;7.03;6.32;;;16.20;99.90;;;;;;5076480;28;20042;-77
2023/09/04 07:29:55;;;;;;;7.25;6.50;;;16.30;99.90;;;;;;5090220;28;20036;-77
2023/09/04 07:32:21;;;;;;;6.72;6.13;;;16.50;99.90;;;;;;5083997;28;20544;-77
2023/09/04 07:34:47;;;;;;;6.45;5.82;;;16.60;99.90;;;;;;5070108;28;20091;-77
2023/09/04 07:37:13;;;;;;;6.72;5.65;;;16.80;99.90;;;;;;5070120;28;20083;-79
2023/09/04 07:39:39;;;;;;;7.97;5.70;;;17.00;99.90;;;;;;5070670;28;20118;-78
2023/09/04 07:42:05;;;;;;;8.02;5.80;;;17.00;99.90;;;;;;5070348;28;20139;-78
2023/09/04 07:44:31;;;;;;;6.18;5.57;;;17.20;99.90;;;;;;5070296;28;20036;-81
2023/09/04 07:46:57;;;;;;;5.85;5.32;;;17.40;99.90;;;;;;5070371;28;20083;-78
2023/09/04 07:49:23;;;;;;;5.35;4.95;;;17.60;99.90;;;;;;5076800;28;20051;-77
2023/09/04 07:51:49;;;;;;;5.63;5.03;;;17.60;99.90;;;;;;5088759;28;20101;-80
2023/09/04 07:54:14;;;;;;;5.35;4.85;;;17.70;99.90;;;;;;5088680;28;20079;-80
2023/09/04 07:56:40;;;;;;;5.60;5.10;;;17.90;99.90;;;;;;5084539;28;20032;-80
2023/09/04 07:59:05;;;;;;;6.07;5.10;;;18.10;99.90;;;;;;5069954;28;20040;-81
2023/09/04 08:01:32;;;;;;;5.35;4.95;;;18.20;99.90;;;;;;5070138;28;20133;-80
2023/09/04 08:04:01;;;;;;;5.75;4.95;;;18.30;99.90;;;;;;5080322;28;20105;-80
2023/09/04 08:06:27;;;;;;;5.57;5.07;;;18.40;99.90;;;;;;5087855;28;20059;-79
2023/09/04 08:08:52;;;;;;;5.03;4.63;;;19.40;99.90;;;;;;5088918;28;20081;-80
2023/09/04 08:11:18;;;;;;;5.68;4.57;;;18.60;99.90;;;;;;5089924;28;20048;-79
2023/09/04 08:13:43;;;;;;;4.95;4.55;;;18.70;99.90;;;;;;5089819;28;20073;-81
2023/09/04 08:16:09;;;;;;;5.18;4.68;;;18.80;99.90;;;;;;5083691;28;20041;-81
2023/09/04 08:18:35;;;;;;;5.18;4.78;;;19.10;99.90;;;;;;5073868;28;20097;-81
2023/09/04 08:21:01;;;;;;;5.78;5.30;;;19.20;99.90;;;;;;5088669;28;20074;-81
2023/09/04 08:23:27;;;;;;;9.65;5.30;;;19.20;99.90;;;;;;5070120;28;20060;-81
2023/09/04 08:25:59;;;;;;;6.03;5.15;;;19.30;99.90;;;;;;5068851;28;20064;-81
2023/09/04 08:28:25;;;;;;;4.80;4.30;;;19.60;99.90;;;;;;5068427;28;20054;-80
2023/09/04 08:30:51;;;;;;;4.40;4.00;;;19.60;99.90;;;;;;5069617;28;20044;-81
2023/09/04 08:33:17;;;;;;;4.85;4.32;;;19.70;99.90;;;;;;5070654;28;20572;-81
2023/09/04 08:35:42;;;;;;;4.60;4.20;;;19.80;99.90;;;;;;5068083;28;20040;-80
2023/09/04 08:38:08;;;;;;;4.43;4.07;;;19.90;99.90;;;;;;5068975;28;20068;-80
2023/09/04 08:40:34;;;;;;;4.43;4.00;;;20.00;99.90;;;;;;5068936;28;20036;-82
2023/09/04 08:43:00;;;;;;;4.32;3.70;;;20.20;99.90;;;;;;5068078;28;20094;-80
2023/09/04 08:45:27;;;;;;;4.32;3.90;;;20.30;99.90;;;;;;5069492;28;20044;-81
2023/09/04 08:47:54;;;;;;;4.32;3.55;;;20.40;99.90;;;;;;5085973;28;20101;-81
2023/09/04 08:50:21;;;;;;;4.75;3.67;;;20.40;99.90;;;;;;5086742;28;20074;-81
2023/09/04 08:52:49;;;;;;;4.00;3.63;;;20.40;99.90;;;;;;5087717;28;20384;-81
2023/09/04 08:55:16;;;;;;;3.95;3.30;;;20.60;99.90;;;;;;5089001;28;20155;-81
2023/09/04 08:57:42;;;;;;;3.83;3.40;;;20.50;99.90;;;;;;5086925;28;20043;-81
2023/09/04 09:00:10;;;;;;;3.95;3.20;;;20.70;99.90;;;;;;5084124;28;20105;-81
2023/09/04 09:02:37;;;;;;;4.75;3.10;;;20.70;99.90;;;;;;5068510;28;20056;-81
2023/09/04 09:05:03;;;;;;;4.05;3.50;;;20.80;99.90;;;;;;5050261;28;20533;-82
2023/09/04 09:07:29;;;;;;;4.28;3.55;;;20.90;99.90;;;;;;5050626;28;20108;-80
2023/09/04 09:10:02;;;;;;;3.67;3.38;;;20.90;99.90;;;;;;5084373;28;20074;-80
2023/09/04 09:12:27;;;;;;;3.67;3.28;;;20.90;99.90;;;;;;5077914;28;20074;-81
2023/09/04 09:14:53;;;;;;;3.85;3.20;;;21.00;99.90;;;;;;5074502;28;20064;-81
2023/09/04 09:17:19;;;;;;;3.88;2.90;;;21.00;99.90;;;;;;5069013;28;20166;-81
2023/09/04 09:19:45;;;;;;;4.25;3.10;;;21.10;99.90;;;;;;5083684;28;20650;-80
2023/09/04 09:22:11;;;;;;;4.68;3.20;;;21.20;99.90;;;;;;5068485;28;20097;-81
2023/09/04 09:25:00;;;;;;;4.28;2.40;;;21.30;99.90;;;;;;5068106;28;20444;-81
2023/09/04 09:27:31;;;;;;;3.17;2.88;;;21.40;99.90;;;;;;5083852;28;20151;-82
2023/09/04 09:29:59;;;;;;;2.80;2.60;;;21.50;99.90;;;;;;5068269;28;20051;-82
2023/09/04 09:32:30;;;;;;;3.10;2.35;;;21.50;99.90;;;;;;5068407;28;20041;-81
2023/09/04 09:34:58;;;;;;;3.60;2.80;;;21.60;99.90;;;;;;5083203;28;20036;-81
2023/09/04 09:37:25;;;;;;;3.15;2.80;;;21.70;99.90;;;;;;5067955;28;20388;-82
2023/09/04 09:39:51;;;;;;;3.25;2.38;;;21.80;99.90;;;;;;5067864;28;20442;-81
2023/09/04 09:42:17;;;;;;;2.80;2.50;;;21.90;99.90;;;;;;5067921;28;20106;-81
2023/09/04 09:44:43;;;;;;;2.75;2.30;;;21.90;99.90;;;;;;5067645;28;20110;-81
2023/09/04 09:47:13;;;;;;;3.83;2.30;;;22.00;99.90;;;;;;5067672;28;20048;-81
2023/09/04 09:49:40;;;;;;;3.63;2.25;;;22.10;99.90;;;;;;5082410;28;21001;-81
2023/09/04 09:52:10;;;;;;;2.55;2.30;;;22.30;99.90;;;;;;5086731;28;20062;-81
2023/09/04 09:54:38;;;;;;;4.22;2.30;;;22.30;99.90;;;;;;5088617;28;20457;-82
2023/09/04 09:57:08;;;;;;;2.13;1.92;;;22.40;99.90;;;;;;5086535;28;20050;-82
2023/09/04 09:59:36;;;;;;;3.90;2.17;;;22.40;99.90;;;;;;5088463;28;20067;-81
2023/09/04 10:02:03;;;;;;;2.88;2.17;;;22.40;99.90;;;;;;5087571;28;20056;-82
2023/09/04 10:04:31;;;;;;;2.50;2.30;;;22.40;99.90;;;;;;5069472;28;20068;-81
2023/09/04 10:07:00;;;;;;;4.32;2.45;;;22.40;99.90;;;;;;5068347;28;20040;-81
2023/09/04 10:09:28;;;;;;;3.92;2.40;;;22.40;99.90;;;;;;5072660;28;20516;-81
2023/09/04 10:12:03;;;;;;;4.18;2.50;;;22.40;99.90;;;;;;5069965;28;20044;-82
2023/09/04 10:14:35;;;;;;;9.60;2.10;;;22.30;99.90;;;;;;5070463;28;20372;-81
2023/09/04 10:17:02;;;;;;;8.23;2.78;;;22.40;99.90;;;;;;5065927;28;20051;-80
2023/09/04 10:19:35;;;;;;;3.42;2.13;;;22.40;99.90;;;;;;5075963;28;20062;-81
2023/09/04 10:22:06;;;;;;;2.83;2.05;;;22.50;99.90;;;;;;5069604;28;20047;-81
2023/09/04 10:24:49;;;;;;;3.35;2.42;;;22.60;99.90;;;;;;5088356;28;20052;-82
2023/09/04 10:27:17;;;;;;;3.08;2.45;;;22.70;99.90;;;;;;5087525;28;20807;-81
2023/09/04 10:29:54;;;;;;;2.72;2.53;;;22.90;99.90;;;;;;5086232;28;20532;-83
2023/09/04 10:32:20;;;;;;;2.95;1.98;;;23.10;99.90;;;;;;5081036;28;20059;-82
2023/09/04 10:34:46;;;;;;;2.63;2.42;;;22.80;99.90;;;;;;5086620;28;20071;-83
2023/09/04 10:37:12;;;;;;;3.50;2.10;;;23.00;99.90;;;;;;5086381;28;20040;-82
2023/09/04 10:39:39;;;;;;;2.38;1.98;;;23.00;99.90;;;;;;5084386;28;20080;-82
2023/09/04 10:42:06;;;;;;;3.90;2.25;;;23.00;99.90;;;;;;5064292;28;20048;-82
2023/09/04 10:44:51;;;;;;;2.92;2.30;;;23.10;99.90;;;;;;5067208;28;20107;-82
2023/09/04 10:47:17;;;;;;;3.58;2.30;;;23.20;99.50;;;;;;5080299;28;20056;-82
2023/09/04 10:49:44;;;;;;;2.63;2.30;;;23.00;99.50;;;;;;5065922;28;20061;-82
2023/09/04 10:52:10;;;;;;;2.15;1.95;;;23.30;99.60;;;;;;5067601;28;20056;-83
2023/09/04 10:54:36;;;;;;;4.50;2.28;;;23.20;99.40;;;;;;5065762;28;20041;-84
2023/09/04 10:57:07;;;;;;;2.63;2.30;;;23.10;99.70;;;;;;5066879;28;20098;-82
2023/09/04 10:59:55;;;;;;;3.33;2.00;;;23.40;99.40;;;;;;5102484;28;20506;-82
2023/09/04 11:02:34;;;;;;;2.58;2.00;;;23.40;97.00;;;;;;5084986;28;20044;-82
2023/09/04 11:05:06;;;;;;;2.25;2.05;;;23.40;98.10;;;;;;5053683;28;20482;-82
2023/09/04 11:07:35;;;;;;;2.50;1.75;;;23.40;98.00;;;;;;5087392;28;20087;-82
2023/09/04 11:10:02;;;;;;;2.38;1.80;;;23.40;97.50;;;;;;5086770;28;20071;-82
2023/09/04 11:12:31;;;;;;;1.95;1.75;;;23.40;97.80;;;;;;5087242;28;20130;-83
2023/09/04 11:14:58;;;;;;;2.10;1.75;;;23.50;96.50;;;;;;5085486;28;21142;-82
2023/09/04 11:17:31;;;;;;;1.95;1.50;;;23.60;96.80;;;;;;5087092;28;20623;-82
2023/09/04 11:19:58;;;;;;;3.08;2.17;;;23.70;95.90;;;;;;5081275;28;20113;-82
2023/09/04 11:22:24;;;;;;;2.47;1.95;;;23.70;96.40;;;;;;5081031;28;20085;-82
2023/09/04 11:24:53;;;;;;;2.13;1.90;;;23.70;96.20;;;;;;5079943;28;20380;-83
2023/09/04 11:27:20;;;;;;;4.03;2.00;;;23.70;95.80;;;;;;5080411;28;20037;-82
2023/09/04 11:29:47;;;;;;;1.88;1.73;;;23.90;95.90;;;;;;5070336;28;20435;-82
2023/09/04 11:32:12;;;;;;;2.75;1.88;;;23.90;95.60;;;;;;5089027;28;20169;-83
2023/09/04 11:34:41;;;;;;;2.72;1.85;;;23.90;95.60;;;;;;5071900;28;20123;-82
2023/09/04 11:37:06;;;;;;;2.65;2.13;;;24.00;95.30;;;;;;5072157;28;20060;-84
2023/09/04 11:39:32;;;;;;;2.38;2.17;;;24.00;95.10;;;;;;5071260;28;20403;-83
2023/09/04 11:42:00;;;;;;;4.45;2.25;;;24.10;94.90;;;;;;5071940;28;20028;-82
2023/09/04 11:44:25;;;;;;;36.92;9.00;;;24.10;94.80;;;;;;5072305;28;20406;-83
2023/09/04 11:46:51;;;;;;;5.78;2.97;;;24.10;95.30;;;;;;5070194;28;20048;-82
2023/09/04 11:49:17;;;;;;;3.08;1.95;;;24.20;94.80;;;;;;5071162;28;20057;-84
2023/09/04 11:51:44;;;;;;;3.92;2.22;;;24.30;94.50;;;;;;5070851;28;20059;-83
2023/09/04 11:54:10;;;;;;;2.33;2.00;;;24.30;94.20;;;;;;5072018;28;20088;-83
2023/09/04 11:56:37;;;;;;;4.55;2.28;;;24.30;94.30;;;;;;5089903;28;20047;-82
2023/09/04 11:59:04;;;;;;;6.35;2.42;;;24.30;94.40;;;;;;5088094;28;20479;-82
2023/09/04 12:01:30;;;;;;;5.43;2.33;;;24.40;94.40;;;;;;5053796;28;20076;-82
2023/09/04 12:03:55;;;;;;;4.18;2.13;;;24.50;94.00;;;;;;5068678;28;20075;-83
2023/09/04 12:06:25;;;;;;;2.55;1.80;;;24.50;93.10;;;;;;5070637;28;20036;-83
2023/09/04 12:08:51;;;;;;;4.40;2.00;;;24.40;92.30;;;;;;5080265;28;20533;-83
2023/09/04 12:11:17;;;;;;;3.38;2.40;;;24.40;92.10;;;;;;5087000;28;20054;-83
2023/09/04 12:13:43;;;;;;;3.40;2.15;;;24.60;92.30;;;;;;5086427;28;20051;-82
2023/09/04 12:16:10;;;;;;;2.28;1.88;;;24.30;92.30;;;;;;5068938;28;20086;-84
2023/09/04 12:18:38;;;;;;;2.15;2.00;;;24.30;92.50;;;;;;5074440;28;20052;-83
2023/09/04 12:21:11;;;;;;;2.05;1.85;;;24.40;92.80;;;;;;5067966;28;20099;-83
2023/09/04 12:23:44;;;;;;;3.90;2.05;;;24.50;92.70;;;;;;5066390;28;20044;-84
2023/09/04 12:26:12;;;;;;;3.35;2.30;;;24.50;92.00;;;;;;5068427;28;20056;-83
2023/09/04 12:28:38;;;;;;;2.08;1.83;;;24.60;92.50;;;;;;5067349;28;20048;-83
2023/09/04 12:31:06;;;;;;;2.70;1.80;;;24.60;92.50;;;;;;5068190;28;20048;-82
2023/09/04 12:33:31;;;;;;;2.13;1.90;;;24.70;91.80;;;;;;5072600;28;20048;-83
2023/09/04 12:35:59;;;;;;;2.83;2.10;;;24.80;91.20;;;;;;5087743;28;20056;-84
2023/09/04 12:38:24;;;;;;;2.53;1.60;;;24.70;90.70;;;;;;5084919;28;20044;-83
2023/09/04 12:40:50;;;;;;;2.05;1.80;;;24.80;90.20;;;;;;5085112;28;20044;-83
2023/09/04 12:43:15;;;;;;;4.20;1.88;;;24.80;89.20;;;;;;5069563;28;20127;-84